KBOW/BOW METAR and TAF weather

Enter ICAO airport designator
Station Type Date Time Source
KBOW METAR 2021/07/28 20:50 UTC NOAA

KBOW 282050Z 26010KT 10SM SKC 30/23 A3002


Station Type Date Time Source
KBOW Decoded METAR 2021/07/28 20:50 UTC NOAA

Bartow Municipal, FL, United States (KBOW) 27-57N 081-47W
Jul 28, 2021 - 04:50 PM EDT / 2021.07.28 2050 UTC
Wind: from the W (260 degrees) at 12 MPH (10 KT):0
Visibility: 10 mile(s):0
Sky conditions: clear
Temperature: 86 F (30 C)
Heat index: 93.4 F (34.1 C):1
Dew Point: 73 F (23 C)
Relative Humidity: 66%
Pressure (altimeter): 30.02 in. Hg (1016 hPa)
ob: KBOW 282050Z 26010KT 10SM SKC 30/23 A3002
cycle: 21

Station Type Date Time Source
KBOW TAF UTC NOAA

Error!

Example: see airport list